Nearby METAR Reports

 

KSJC - San Jose, California, USA
Distance from station: NE 9mi, 14km
Updated: Fri, 28-Feb-2020 8:53pm CST
Mostly cloudy
Mostly cloudy
 Wind from NW
Wind: NW 13 mph , 20 km/h
Temperature: 57°F , 14°C
Dew Point: 50°F , 10°C
Humidity: 77%
Barometer: 30.09 inHg , 1019 hPa
Clouds: Mostly cloudy
Visibility: 10 miles , 16 km
Cloud details: Few Clouds 4500 ft
Partly cloudy 6500 ft
Mostly cloudy 10000 ft
2020/02/29 02:53 KSJC 290253Z 31011KT 10SM FEW045 SCT065 BKN100 14/10 A3009 RMK AO2 SLP189 FU FEW045 T01440100 53008
KNUQ - Moffett Nas/Mtn, California, USA
Distance from station: N 9mi, 14km
Updated: Thu, 21-Nov-2019 10:56am CST
NOT Current

 
Barometer: 29.86 inHg , 1011.2 hPa
2019/11/21 16:56 KNUQ 211656Z AUTO A2986 RMK AO2 SLP116 PWINO $
 
KPAO - Palo Alto, California, USA
Distance from station: NNW 14mi, 23km
Updated: Fri, 28-Feb-2020 8:47pm CST
Mostly cloudy
Mostly cloudy
 Wind from NNW
Wind: NNW 8 mph , 13 km/h
Temperature: 55°F , 13°C
Dew Point: 48°F , 9°C
Humidity: 77%
Barometer: 30.09 inHg , 1019 hPa
Clouds: Mostly cloudy
Visibility: 10 miles , 16 km
Cloud details: Mostly cloudy 12000 ft
2020/02/29 02:47 KPAO 290247Z 33007KT 10SM BKN120 13/09 A3009
KRHV - San Jose/Reid, California, USA
Distance from station: ENE 12mi, 19km
Updated: Fri, 28-Feb-2020 8:47pm CST
Mostly cloudy
Mostly cloudy
 Wind from WNW
Wind: WNW 7 mph , 11 km/h
Temperature: 63°F , 17°C
Dew Point: 48°F , 9°C
Humidity: 59%
Barometer: 30.09 inHg , 1019 hPa
Clouds: Mostly cloudy
Visibility: 10 miles , 16 km
Cloud details: Mostly cloudy 11000 ft
2020/02/29 02:47 KRHV 290247Z 29006KT 10SM BKN110 17/09 A3009
 
KOAK - Oakland, California, USA
Distance from station: NNW 31mi, 50km
Updated: Fri, 28-Feb-2020 8:53pm CST
Mostly cloudy
Mostly cloudy
 Wind from W
Wind: W 9 mph , 15 km/h
Temperature: 57°F , 14°C
Dew Point: 48°F , 9°C
Humidity: 72%
Barometer: 30.11 inHg , 1019.6 hPa
Clouds: Mostly cloudy
Visibility: 10 miles , 16 km
Cloud details: Few Clouds 500 ft
Partly cloudy 18000 ft
Mostly cloudy 21000 ft
2020/02/29 02:53 KOAK 290253Z 27008KT 10SM FEW005 SCT180 BKN210 14/09 A3011 RMK AO2 SLP197 T01390094 52008
KSQL - San Carlos Airpo, California, USA
Distance from station: NW 21mi, 34km
Updated: Fri, 28-Feb-2020 8:47pm CST
Mostly cloudy
Mostly cloudy
 Wind from NW
Wind: NW 12 mph , 19 km/h
Temperature: 55°F , 13°C
Dew Point: 48°F , 9°C
Humidity: 77%
Barometer: 30.09 inHg , 1019 hPa
Clouds: Mostly cloudy
Visibility: 10 miles , 16 km
Cloud details: Mostly cloudy 18000 ft
Mostly cloudy 20000 ft
2020/02/29 02:47 KSQL 290247Z 32010KT 10SM BKN180 BKN200 13/09 A3009
 
KSFO - San Francisco, California, USA
Distance from station: NW 30mi, 49km
Updated: Fri, 28-Feb-2020 8:56pm CST
Mostly cloudy
Mostly cloudy
 Wind from W
Wind: W 12 mph , 19 km/h
Temperature: 52°F , 11°C
Dew Point: 46°F , 8°C
Humidity: 82%
Barometer: 30.10 inHg , 1019.3 hPa
Clouds: Mostly cloudy
Visibility: 10 miles , 16 km
Cloud details: Few Clouds 600 ft
Mostly cloudy 18000 ft
2020/02/29 02:56 KSFO 290256Z 27010KT 10SM FEW006 BKN180 11/08 A3010 RMK AO2 SLP194 T01110083 53006
KE16 - San Martin, California, USA
Distance from station: ESE 27mi, 43km
Updated: Thu, 14-Nov-2019 3:35am CST
NOT Current
Overcast
Overcast
 Wind from SE
Wind: SE 7 mph , 11 km/h
Temperature: 54°F , 12°C
Dew Point: 50°F , 10°C
Humidity: 88%
Barometer: 30.05 inHg , 1017.6 hPa
Clouds: Overcast
Visibility: 10 miles , 16 km
Cloud details: Overcast 1400 ft
2019/11/14 09:35 KE16 140935Z AUTO 13006KT 10SM OVC014 12/10 A3005 RMK AO2
 
KWVI - Watsonville, California, USA
Distance from station: SSE 27mi, 44km
Updated: Fri, 28-Feb-2020 8:53pm CST
Overcast
Overcast
 Wind from calm
Wind: Calm
Temperature: 54°F , 12°C
Dew Point: 52°F , 11°C
Humidity: 94%
Barometer: 30.12 inHg , 1020 hPa
Clouds: Overcast
Visibility: 7 miles , 11 km
Cloud details: Overcast 400 ft
2020/02/29 02:53 KWVI 290253Z AUTO 00000KT 7SM OVC004 12/11 A3012 RMK AO2 SLP198 T01170106 53007
KHAF - Half Moon Bay, California, USA
Distance from station: WNW 31mi, 50km
Updated: Fri, 28-Feb-2020 8:55pm CST
Mist, Overcast
Mist, Overcast
 Wind from N
Wind: N 5 mph , 7 km/h
Temperature: 50°F , 10°C
Wind Chill: 48°F , 9°C
Dew Point: 48°F , 9°C
Humidity: 94%
Barometer: 30.13 inHg , 1020.3 hPa
Summary: Mist
Clouds: Overcast
Visibility: 6 miles , 10 km
Cloud details: Overcast 600 ft
2020/02/29 02:55 KHAF 290255Z AUTO 01004KT 6SM BR OVC006 10/09 A3013 RMK AO2
 
KHWD - Hayward, California, USA
Distance from station: N 28mi, 44km
Updated: Fri, 28-Feb-2020 8:54pm CST
Clear
Clear
 Wind from W
Wind: W 9 mph , 15 km/h
Temperature: 55°F , 13°C
Dew Point: 48°F , 9°C
Humidity: 77%
Barometer: 30.10 inHg , 1019.3 hPa
Clouds: Clear
Visibility: 10 miles , 16 km
2020/02/29 02:54 KHWD 290254Z 27008KT 10SM CLR 13/09 A3010 RMK AO2 SLP202 T01280094 53007
KLVK - Livermore, California, USA
Distance from station: NNE 31mi, 51km
Updated: Fri, 28-Feb-2020 8:53pm CST
Clear
Clear
 Wind from W
Wind: W 6 mph , 9 km/h
Temperature: 63°F , 17°C
Dew Point: 45°F , 7°C
Humidity: 52%
Barometer: 30.07 inHg , 1018.3 hPa
Clouds: Clear
Visibility: 10 miles , 16 km
2020/02/29 02:53 KLVK 290253Z 27005KT 10SM CLR 17/07 A3007 RMK AO2 SLP180 T01670067 51007